createdAt,value
2022-12-15T00:01:29.743Z,38.26
2022-12-15T00:11:49.923Z,38.16
2022-12-15T00:22:09.816Z,38.17
2022-12-15T00:32:29.848Z,38.15
2022-12-15T00:42:31.229Z,38.19
2022-12-15T00:52:51.180Z,38.25
2022-12-15T01:03:11.312Z,38.22
2022-12-15T01:13:32.225Z,38.34
2022-12-15T01:23:34.677Z,38.12
2022-12-15T01:33:36.246Z,38.12
2022-12-15T01:43:38.951Z,38.18
2022-12-15T01:53:50.255Z,38.12
2022-12-15T02:03:51.726Z,37.97
2022-12-15T02:14:00.952Z,37.95
2022-12-15T02:24:08.039Z,37.88
2022-12-15T02:34:18.682Z,37.95
2022-12-15T02:44:26.787Z,37.95
2022-12-15T02:54:54.312Z,37.88
2022-12-15T03:04:56.072Z,38.01
2022-12-15T03:14:57.918Z,37.70
2022-12-15T03:24:59.486Z,38.06
2022-12-15T03:35:00.974Z,38.18
2022-12-15T03:45:02.352Z,38.33
2022-12-15T03:55:04.283Z,38.61
2022-12-15T04:05:06.065Z,38.95
2022-12-15T04:15:08.205Z,39.08
2022-12-15T04:25:33.143Z,39.18
2022-12-15T04:35:54.276Z,39.12
2022-12-15T04:46:13.995Z,39.07
2022-12-15T04:56:34.475Z,38.90
2022-12-15T05:06:54.240Z,38.70
2022-12-15T05:17:14.581Z,38.52
2022-12-15T05:27:34.790Z,38.50
2022-12-15T05:37:39.172Z,38.15
2022-12-15T05:47:40.747Z,38.23
2022-12-15T05:57:42.161Z,38.07
2022-12-15T06:07:43.546Z,38.14
2022-12-15T06:17:45.007Z,38.08
2022-12-15T06:27:51.079Z,38.01
2022-12-15T06:37:52.662Z,37.98
2022-12-15T06:47:59.518Z,38.03
2022-12-15T06:58:02.709Z,37.83
2022-12-15T07:08:04.310Z,37.83
2022-12-15T07:18:05.842Z,37.81
2022-12-15T07:28:07.455Z,37.79
2022-12-15T07:38:08.903Z,37.94
2022-12-15T07:48:10.277Z,37.84
2022-12-15T07:58:11.682Z,37.82
2022-12-15T08:08:15.458Z,37.54
2022-12-15T08:18:17.047Z,37.66
2022-12-15T08:28:18.632Z,37.22
2022-12-15T08:38:20.333Z,37.52
2022-12-15T08:48:23.022Z,37.52
2022-12-15T08:58:24.427Z,37.53
2022-12-15T09:08:26.296Z,37.47
2022-12-15T09:18:27.785Z,37.46
2022-12-15T09:28:29.361Z,37.36
2022-12-15T09:38:31.119Z,37.29
2022-12-15T09:48:36.578Z,37.09
2022-12-15T10:08:58.311Z,36.96
2022-12-15T10:19:11.368Z,36.89
2022-12-15T10:29:34.522Z,36.47
2022-12-15T10:39:42.976Z,36.86
2022-12-15T10:49:44.441Z,36.89
2022-12-15T10:59:50.350Z,36.74
2022-12-15T11:09:58.434Z,36.77
2022-12-15T11:20:04.896Z,36.73
2022-12-15T11:30:19.548Z,36.85
2022-12-15T11:40:34.220Z,36.94
2022-12-15T11:50:53.026Z,37.17
2022-12-15T12:01:05.468Z,36.92
2022-12-15T12:11:15.053Z,36.96
2022-12-15T12:21:18.422Z,37.07
2022-12-15T12:32:05.107Z,36.98
2022-12-15T12:42:12.320Z,36.97
2022-12-15T12:52:25.428Z,37.07
2022-12-15T13:02:26.917Z,36.96
2022-12-15T13:12:58.576Z,37.08
2022-12-15T13:23:19.378Z,37.15
2022-12-15T13:33:20.835Z,37.25
2022-12-15T13:43:28.969Z,37.49
2022-12-15T13:53:38.259Z,37.67
2022-12-15T14:03:40.738Z,37.73
2022-12-15T14:13:42.262Z,37.97
2022-12-15T14:24:04.135Z,38.06
2022-12-15T14:34:08.052Z,38.16
2022-12-15T14:44:36.221Z,38.28
2022-12-15T14:54:53.491Z,38.36
2022-12-15T15:05:07.323Z,38.52
2022-12-15T15:15:14.860Z,38.66
2022-12-15T15:25:25.331Z,38.76
2022-12-15T15:35:30.698Z,38.81
2022-12-15T15:45:32.092Z,38.92
2022-12-15T15:55:39.401Z,38.96
2022-12-15T16:05:41.816Z,38.81
2022-12-15T16:15:43.240Z,38.54
2022-12-15T16:25:50.526Z,38.34
2022-12-15T16:35:52.605Z,38.34
2022-12-15T16:45:54.101Z,38.32
2022-12-15T16:55:56.783Z,38.15
2022-12-15T17:06:01.892Z,38.14
2022-12-15T17:16:03.567Z,38.02
2022-12-15T17:26:27.989Z,37.95
2022-12-15T17:36:29.764Z,38.11
2022-12-15T17:46:31.289Z,37.98
2022-12-15T17:56:32.816Z,38.13
2022-12-15T18:06:34.359Z,38.19
2022-12-15T18:16:35.795Z,38.00
2022-12-15T18:26:37.761Z,38.06
2022-12-15T18:36:39.927Z,38.00
2022-12-15T18:46:46.284Z,37.99
2022-12-15T18:56:49.566Z,37.97
2022-12-15T19:06:51.022Z,38.01
2022-12-15T19:17:11.089Z,37.97
2022-12-15T19:27:13.173Z,37.90
2022-12-15T19:37:28.151Z,38.11
2022-12-15T19:47:31.043Z,38.28
2022-12-15T19:57:32.468Z,38.51
2022-12-15T20:07:33.833Z,38.71
2022-12-15T20:17:35.439Z,38.72
2022-12-15T20:27:36.907Z,38.84
2022-12-15T20:37:38.345Z,39.09
2022-12-15T20:47:40.242Z,39.21
2022-12-15T20:57:41.639Z,39.45
2022-12-15T21:07:43.192Z,39.42
2022-12-15T21:17:45.274Z,39.29
2022-12-15T21:27:46.651Z,39.02
2022-12-15T21:37:49.499Z,38.91
2022-12-15T21:48:11.985Z,38.67
2022-12-15T21:58:18.413Z,38.67
2022-12-15T22:08:20.258Z,38.51
2022-12-15T22:18:22.486Z,38.50
2022-12-15T22:28:24.852Z,38.63
2022-12-15T22:38:26.304Z,38.45
2022-12-15T22:48:30.805Z,38.50
2022-12-15T22:58:37.185Z,38.58
2022-12-15T23:08:38.620Z,38.52
2022-12-15T23:18:40.025Z,38.40
2022-12-15T23:28:41.715Z,38.42
2022-12-15T23:38:43.315Z,38.04
2022-12-15T23:48:45.526Z,38.31
2022-12-15T23:58:48.842Z,38.29
